CheckWX is a tool to help pilots better visualize weather data.  It is not intended as a substitute for an official pre-flight weather briefing.

12:54:08 UTC

DAUH TAF
Oued Irara Airport
Hassi Messaoud, Algeria
TAF DAUH 221100Z 2212/2312 34012KT 9999 SCT040 SCT100 BECMG 2220/2223 VRB02KT BECMG 2308/2312 31010KT

Mar-22@
12:00 UTC

Mar-22 @ 12:00 UTC

Mar-22@
20:00 UTC

Mar-22 @ 20:00 UTC

TAF DAUH 221100Z 2212/2312 34012KT 9999 SCT040 SCT100
Wind
  • 340° at 12 KTS
Cloud Levels
  • Scattered at 4,000' AGL
  • Scattered at 10,000' AGL

Mar-22@
20:00 UTC

Mar-22 @ 20:00 UTC

Mar-23@
08:00 UTC

Mar-23 @ 08:00 UTC

BECMG 2220/2223 VRB02KT

Becoming

Becoming Conditions expected by Fri, Mar 22, 2019 @ 23:00 UTC

Wind
  • Variable at 2 KTS
Cloud Levels
  • Scattered at 4,000' AGL
  • Scattered at 10,000' AGL

Mar-23@
08:00 UTC

Mar-23 @ 08:00 UTC

Mar-23@
12:00 UTC

Mar-23 @ 12:00 UTC

BECMG 2308/2312 31010KT

Becoming

Becoming Conditions expected by Sat, Mar 23, 2019 @ 12:00 UTC

Wind
  • 310° at 10 KTS
Cloud Levels
  • Scattered at 4,000' AGL
  • Scattered at 10,000' AGL